createdAt,value
2018-07-16T00:00:40.521Z,1010.15
2018-07-16T00:01:40.538Z,1010.12
2018-07-16T00:02:40.543Z,1010.11
2018-07-16T00:03:40.542Z,1010.12
2018-07-16T00:04:40.538Z,1010.15
2018-07-16T00:05:40.543Z,1010.13
2018-07-16T00:06:40.548Z,1010.08
2018-07-16T00:07:40.553Z,1010.15
2018-07-16T00:08:40.559Z,1010.18
2018-07-16T00:09:40.768Z,1010.14
2018-07-16T00:10:40.585Z,1010.14
2018-07-16T00:11:40.788Z,1010.17
2018-07-16T00:12:40.591Z,1010.16
2018-07-16T00:13:40.584Z,1010.15
2018-07-16T00:14:40.668Z,1010.15
2018-07-16T00:15:40.592Z,1010.17
2018-07-16T00:16:40.598Z,1010.14
2018-07-16T00:17:40.817Z,1010.15
2018-07-16T00:18:40.824Z,1010.12
2018-07-16T00:19:40.637Z,1010.08
2018-07-16T00:20:40.823Z,1010.05
2018-07-16T00:21:40.626Z,1010.04
2018-07-16T00:22:40.628Z,1010.04
2018-07-16T00:23:40.643Z,1010.00
2018-07-16T00:24:40.651Z,1010.00
2018-07-16T00:25:40.653Z,1009.98
2018-07-16T00:26:40.865Z,1009.92
2018-07-16T00:27:40.654Z,1009.93
2018-07-16T00:28:40.666Z,1009.88
2018-07-16T00:29:40.676Z,1009.86
2018-07-16T00:30:40.668Z,1009.90
2018-07-16T00:31:40.874Z,1009.90
2018-07-16T00:32:40.691Z,1009.90
2018-07-16T00:33:40.693Z,1009.88
2018-07-16T00:34:40.685Z,1009.87
2018-07-16T00:35:40.689Z,1009.84
2018-07-16T00:36:40.697Z,1009.89
2018-07-16T00:37:40.903Z,1009.86
2018-07-16T00:38:40.719Z,1009.87
2018-07-16T00:39:40.720Z,1009.89
2018-07-16T00:40:40.927Z,1009.84
2018-07-16T00:41:40.719Z,1009.81
2018-07-16T00:42:40.736Z,1009.86
2018-07-16T00:43:40.738Z,1009.81
2018-07-16T00:44:40.730Z,1009.83
2018-07-16T00:45:40.950Z,1009.86
2018-07-16T00:46:40.750Z,1009.83
2018-07-16T00:47:40.758Z,1009.84
2018-07-16T00:48:40.764Z,1009.82
2018-07-16T00:49:40.755Z,1009.80
2018-07-16T00:50:40.963Z,1009.79
2018-07-16T00:51:40.763Z,1009.76
2018-07-16T00:52:40.768Z,1009.78
2018-07-16T00:53:41.001Z,1009.80
2018-07-16T00:54:40.778Z,1009.77
2018-07-16T00:55:40.845Z,1009.73
2018-07-16T00:56:40.787Z,1009.70
2018-07-16T00:57:40.792Z,1009.72
2018-07-16T00:58:40.796Z,1009.72
2018-07-16T00:59:41.039Z,1009.75
2018-07-16T01:00:40.820Z,1009.69
2018-07-16T01:01:40.840Z,1009.66
2018-07-16T01:02:41.028Z,1009.66
2018-07-16T01:03:41.041Z,1009.67
2018-07-16T01:04:40.831Z,1009.66
2018-07-16T01:05:40.829Z,1009.64
2018-07-16T01:06:40.845Z,1009.68
2018-07-16T01:07:41.048Z,1009.68
2018-07-16T01:08:40.843Z,1009.70
2018-07-16T01:09:40.855Z,1009.65
2018-07-16T01:10:40.848Z,1009.62
2018-07-16T01:11:41.054Z,1009.61
2018-07-16T01:12:40.875Z,1009.63
2018-07-16T01:13:40.879Z,1009.60
2018-07-16T01:14:40.869Z,1009.56
2018-07-16T01:15:40.882Z,1009.61
2018-07-16T01:16:40.893Z,1009.60
2018-07-16T01:17:40.882Z,1009.57
2018-07-16T01:18:40.887Z,1009.59
2018-07-16T01:19:40.890Z,1009.59
2018-07-16T01:20:40.898Z,1009.59
2018-07-16T01:21:40.915Z,1009.60
2018-07-16T01:22:40.917Z,1009.58
2018-07-16T01:23:40.919Z,1009.58
2018-07-16T01:24:40.915Z,1009.55
2018-07-16T01:25:40.918Z,1009.55
2018-07-16T01:26:40.953Z,1009.56
2018-07-16T01:27:40.936Z,1009.55
2018-07-16T01:28:41.147Z,1009.50
2018-07-16T01:29:40.948Z,1009.54
2018-07-16T01:30:40.941Z,1009.53
2018-07-16T01:31:40.974Z,1009.59
2018-07-16T01:32:40.995Z,1009.57
2018-07-16T01:33:40.953Z,1009.57
2018-07-16T01:34:41.175Z,1009.57
2018-07-16T01:35:40.975Z,1009.58
2018-07-16T01:36:40.971Z,1009.56
2018-07-16T01:37:41.006Z,1009.56
2018-07-16T01:38:40.978Z,1009.57
2018-07-16T01:39:41.197Z,1009.60
2018-07-16T01:40:40.987Z,1009.59
2018-07-16T01:41:41.215Z,1009.55
2018-07-16T01:42:41.201Z,1009.58
2018-07-16T01:43:41.012Z,1009.56
2018-07-16T01:44:41.004Z,1009.56
2018-07-16T01:45:41.011Z,1009.54
2018-07-16T01:46:41.025Z,1009.52
2018-07-16T01:47:41.019Z,1009.53
2018-07-16T01:48:41.047Z,1009.48
2018-07-16T01:49:41.026Z,1009.47
2018-07-16T01:50:41.241Z,1009.49
2018-07-16T01:51:41.041Z,1009.46
2018-07-16T01:52:41.037Z,1009.44
2018-07-16T01:53:41.052Z,1009.44
2018-07-16T01:54:41.061Z,1009.41
2018-07-16T01:55:41.057Z,1009.43
2018-07-16T01:56:41.257Z,1009.35
2018-07-16T01:57:41.069Z,1009.37
2018-07-16T01:58:41.074Z,1009.37
2018-07-16T01:59:41.267Z,1009.36
2018-07-16T02:00:41.073Z,1009.32
2018-07-16T02:01:41.085Z,1009.36
2018-07-16T02:02:41.078Z,1009.32
2018-07-16T02:03:41.286Z,1009.34
2018-07-16T02:04:41.092Z,1009.36
2018-07-16T02:05:41.088Z,1009.33
2018-07-16T02:06:41.309Z,1009.28
2018-07-16T02:07:41.096Z,1009.31
2018-07-16T02:08:41.099Z,1009.30
2018-07-16T02:09:41.120Z,1009.28
2018-07-16T02:10:41.121Z,1009.30
2018-07-16T02:11:41.316Z,1009.30
2018-07-16T02:12:41.330Z,1009.25
2018-07-16T02:13:41.130Z,1009.30
2018-07-16T02:14:41.125Z,1009.27
2018-07-16T02:15:41.127Z,1009.31
2018-07-16T02:16:41.143Z,1009.28
2018-07-16T02:17:41.149Z,1009.28
2018-07-16T02:18:41.155Z,1009.30
2018-07-16T02:19:41.144Z,1009.30
2018-07-16T02:20:41.147Z,1009.28
2018-07-16T02:21:41.153Z,1009.31
2018-07-16T02:22:41.360Z,1009.31
2018-07-16T02:23:41.159Z,1009.34
2018-07-16T02:24:41.168Z,1009.34
2018-07-16T02:25:41.169Z,1009.34
2018-07-16T02:26:41.184Z,1009.34
2018-07-16T02:27:41.192Z,1009.33
2018-07-16T02:28:41.182Z,1009.31
2018-07-16T02:29:41.184Z,1009.30
2018-07-16T02:30:41.192Z,1009.31
2018-07-16T02:31:41.192Z,1009.25
2018-07-16T02:32:41.199Z,1009.28
2018-07-16T02:33:41.200Z,1009.26
2018-07-16T02:34:41.207Z,1009.26
2018-07-16T02:35:41.420Z,1009.20
2018-07-16T02:36:41.235Z,1009.21
2018-07-16T02:37:41.432Z,1009.20
2018-07-16T02:38:41.262Z,1009.19
2018-07-16T02:39:41.238Z,1009.20
2018-07-16T02:40:41.239Z,1009.23
2018-07-16T02:41:41.243Z,1009.21
2018-07-16T02:42:41.449Z,1009.19
2018-07-16T02:43:41.239Z,1009.21
2018-07-16T02:44:41.251Z,1009.22
2018-07-16T02:45:41.259Z,1009.20
2018-07-16T02:46:41.467Z,1009.22
2018-07-16T02:47:41.465Z,1009.20
2018-07-16T02:48:41.258Z,1009.20
2018-07-16T02:49:41.262Z,1009.16
2018-07-16T02:50:41.481Z,1009.19
2018-07-16T02:51:41.493Z,1009.20
2018-07-16T02:52:41.272Z,1009.19
2018-07-16T02:53:41.288Z,1009.20
2018-07-16T02:54:41.497Z,1009.21
2018-07-16T02:55:41.291Z,1009.22
2018-07-16T02:56:41.299Z,1009.21
2018-07-16T02:57:41.289Z,1009.19
2018-07-16T02:58:41.303Z,1009.24
2018-07-16T02:59:41.297Z,1009.23
2018-07-16T03:00:41.306Z,1009.26
2018-07-16T03:01:41.314Z,1009.27
2018-07-16T03:02:41.306Z,1009.20
2018-07-16T03:03:41.309Z,1009.22
2018-07-16T03:04:41.312Z,1009.24
2018-07-16T03:05:41.520Z,1009.23
2018-07-16T03:06:41.335Z,1009.22
2018-07-16T03:07:41.336Z,1009.24
2018-07-16T03:08:41.533Z,1009.24
2018-07-16T03:09:41.341Z,1009.23
2018-07-16T03:10:41.346Z,1009.24
2018-07-16T03:11:41.539Z,1009.26
2018-07-16T03:12:41.352Z,1009.26
2018-07-16T03:13:41.367Z,1009.25
2018-07-16T03:14:41.347Z,1009.24
2018-07-16T03:15:41.581Z,1009.26
2018-07-16T03:16:41.370Z,1009.21
2018-07-16T03:17:41.362Z,1009.19
2018-07-16T03:18:41.373Z,1009.21
2018-07-16T03:19:41.374Z,1009.18
2018-07-16T03:20:41.372Z,1009.21
2018-07-16T03:21:41.401Z,1009.19
2018-07-16T03:22:41.398Z,1009.22
2018-07-16T03:23:41.385Z,1009.27
2018-07-16T03:24:41.380Z,1009.23
2018-07-16T03:25:41.599Z,1009.24
2018-07-16T03:26:41.387Z,1009.23
2018-07-16T03:27:41.592Z,1009.26
2018-07-16T03:28:41.405Z,1009.23
2018-07-16T03:29:41.397Z,1009.23
2018-07-16T03:30:41.399Z,1009.26
2018-07-16T03:31:41.620Z,1009.27
2018-07-16T03:32:41.407Z,1009.25
2018-07-16T03:33:41.423Z,1009.23
2018-07-16T03:34:41.425Z,1009.26
2018-07-16T03:35:41.422Z,1009.26
2018-07-16T03:36:41.647Z,1009.27
2018-07-16T03:37:41.462Z,1009.27
2018-07-16T03:38:41.430Z,1009.25
2018-07-16T03:39:41.432Z,1009.27
2018-07-16T03:40:41.436Z,1009.25
2018-07-16T03:41:41.455Z,1009.28
2018-07-16T03:42:41.644Z,1009.27
2018-07-16T03:43:41.448Z,1009.25
2018-07-16T03:44:41.447Z,1009.21
2018-07-16T03:45:41.451Z,1009.17
2018-07-16T03:46:41.453Z,1009.21
2018-07-16T03:47:41.462Z,1009.22
2018-07-16T03:48:41.462Z,1009.22
2018-07-16T03:49:41.467Z,1009.21
2018-07-16T03:50:41.670Z,1009.21
2018-07-16T03:51:41.473Z,1009.26
2018-07-16T03:52:41.473Z,1009.27
2018-07-16T03:53:41.477Z,1009.26
2018-07-16T03:54:41.482Z,1009.31
2018-07-16T03:55:41.490Z,1009.27
2018-07-16T03:56:41.486Z,1009.27
2018-07-16T03:57:41.692Z,1009.28
2018-07-16T03:58:41.503Z,1009.29
2018-07-16T03:59:41.497Z,1009.34
2018-07-16T04:00:41.497Z,1009.33
2018-07-16T04:01:41.605Z,1009.32
2018-07-16T04:02:41.505Z,1009.37
2018-07-16T04:03:41.522Z,1009.39
2018-07-16T04:04:41.515Z,1009.40
2018-07-16T04:05:41.715Z,1009.44
2018-07-16T04:06:41.518Z,1009.44
2018-07-16T04:07:41.519Z,1009.45
2018-07-16T04:08:41.541Z,1009.46
2018-07-16T04:09:41.556Z,1009.44
2018-07-16T04:10:41.530Z,1009.47
2018-07-16T04:11:41.734Z,1009.45
2018-07-16T04:12:41.534Z,1009.47
2018-07-16T04:13:41.751Z,1009.48
2018-07-16T04:14:41.557Z,1009.49
2018-07-16T04:15:41.557Z,1009.47
2018-07-16T04:16:41.549Z,1009.51
2018-07-16T04:17:41.754Z,1009.50
2018-07-16T04:18:41.562Z,1009.53
2018-07-16T04:19:41.566Z,1009.53
2018-07-16T04:20:41.556Z,1009.55
2018-07-16T04:21:41.764Z,1009.54
2018-07-16T04:22:41.565Z,1009.56
2018-07-16T04:23:41.567Z,1009.56
2018-07-16T04:24:41.570Z,1009.55
2018-07-16T04:25:41.584Z,1009.56
2018-07-16T04:26:41.792Z,1009.53
2018-07-16T04:27:41.584Z,1009.53
2018-07-16T04:28:41.582Z,1009.53
2018-07-16T04:29:41.583Z,1009.53
2018-07-16T04:30:41.586Z,1009.52
2018-07-16T04:31:41.801Z,1009.52
2018-07-16T04:32:41.603Z,1009.51
2018-07-16T04:33:41.605Z,1009.50
2018-07-16T04:34:41.616Z,1009.51
2018-07-16T04:35:41.823Z,1009.55
2018-07-16T04:36:41.816Z,1009.51
2018-07-16T04:37:41.804Z,1009.48
2018-07-16T04:38:41.604Z,1009.47
2018-07-16T04:39:41.607Z,1009.44
2018-07-16T04:40:41.618Z,1009.44
2018-07-16T04:41:41.613Z,1009.47
2018-07-16T04:42:41.832Z,1009.46
2018-07-16T04:43:41.616Z,1009.45
2018-07-16T04:44:41.620Z,1009.48
2018-07-16T04:45:41.631Z,1009.47
2018-07-16T04:46:41.635Z,1009.49
2018-07-16T04:47:41.627Z,1009.45
2018-07-16T04:48:41.635Z,1009.49
2018-07-16T04:49:41.838Z,1009.46
2018-07-16T04:50:41.849Z,1009.46
2018-07-16T04:51:41.651Z,1009.43
2018-07-16T04:52:41.649Z,1009.43
2018-07-16T04:53:41.641Z,1009.41
2018-07-16T04:54:41.646Z,1009.44
2018-07-16T04:55:41.659Z,1009.40
2018-07-16T04:56:41.658Z,1009.42
2018-07-16T04:57:41.656Z,1009.45
2018-07-16T04:58:41.655Z,1009.47
2018-07-16T04:59:41.656Z,1009.40
2018-07-16T05:00:41.661Z,1009.43
2018-07-16T05:01:41.670Z,1009.40
2018-07-16T05:02:41.677Z,1009.40
2018-07-16T05:03:41.680Z,1009.37
2018-07-16T05:04:41.886Z,1009.40
2018-07-16T05:05:41.688Z,1009.39
2018-07-16T05:06:41.684Z,1009.36
2018-07-16T05:07:41.676Z,1009.34
2018-07-16T05:08:41.680Z,1009.39
2018-07-16T05:09:41.696Z,1009.34
2018-07-16T05:10:41.688Z,1009.37
2018-07-16T05:11:41.698Z,1009.37
2018-07-16T05:12:41.690Z,1009.38
2018-07-16T05:13:41.694Z,1009.34
2018-07-16T05:14:41.707Z,1009.36
2018-07-16T05:15:41.698Z,1009.36
2018-07-16T05:16:41.716Z,1009.37
2018-07-16T05:17:41.715Z,1009.36
2018-07-16T05:18:41.721Z,1009.35
2018-07-16T05:19:41.723Z,1009.32
2018-07-16T05:20:41.717Z,1009.34
2018-07-16T05:21:41.724Z,1009.33
2018-07-16T05:22:41.726Z,1009.33
2018-07-16T05:23:41.719Z,1009.27
2018-07-16T05:24:41.721Z,1009.25
2018-07-16T05:25:41.950Z,1009.24
2018-07-16T05:26:41.740Z,1009.23
2018-07-16T05:27:41.738Z,1009.25
2018-07-16T05:28:41.745Z,1009.22
2018-07-16T05:29:41.749Z,1009.22
2018-07-16T05:30:41.739Z,1009.24
2018-07-16T05:31:41.755Z,1009.22
2018-07-16T05:32:41.954Z,1009.18
2018-07-16T05:33:41.748Z,1009.19
2018-07-16T05:34:41.952Z,1009.15
2018-07-16T05:35:41.766Z,1009.17
2018-07-16T05:36:41.755Z,1009.13
2018-07-16T05:37:41.758Z,1009.11
2018-07-16T05:38:41.761Z,1009.14
2018-07-16T05:39:41.785Z,1009.12
2018-07-16T05:40:41.777Z,1009.12
2018-07-16T05:41:41.795Z,1009.11
2018-07-16T05:42:41.796Z,1009.12
2018-07-16T05:43:41.811Z,1009.12
2018-07-16T05:44:41.777Z,1009.12
2018-07-16T05:45:41.784Z,1009.16
2018-07-16T05:46:41.789Z,1009.15
2018-07-16T05:47:41.795Z,1009.15
2018-07-16T05:48:41.796Z,1009.18
2018-07-16T05:49:41.793Z,1009.14
2018-07-16T05:50:41.806Z,1009.17
2018-07-16T05:51:41.798Z,1009.14
2018-07-16T05:52:41.813Z,1009.14
2018-07-16T05:53:41.820Z,1009.12
2018-07-16T05:54:41.809Z,1009.10
2018-07-16T05:55:41.809Z,1009.12
2018-07-16T05:56:41.815Z,1009.09
2018-07-16T05:57:41.829Z,1009.12
2018-07-16T05:58:41.834Z,1009.13
2018-07-16T05:59:41.825Z,1009.10
2018-07-16T06:00:41.827Z,1009.12
2018-07-16T06:01:41.830Z,1009.10
2018-07-16T06:02:42.047Z,1009.13
2018-07-16T06:03:41.866Z,1009.08
2018-07-16T06:04:41.867Z,1009.13
2018-07-16T06:05:41.844Z,1009.09
2018-07-16T06:06:41.874Z,1009.09
2018-07-16T06:07:41.880Z,1009.11
2018-07-16T06:08:42.089Z,1009.10
2018-07-16T06:09:41.860Z,1009.09
2018-07-16T06:10:41.861Z,1009.07
2018-07-16T06:11:41.865Z,1009.06
2018-07-16T06:12:41.869Z,1009.07
2018-07-16T06:13:42.085Z,1009.11
2018-07-16T06:14:41.891Z,1009.11
2018-07-16T06:15:41.876Z,1009.10
2018-07-16T06:16:42.146Z,1009.11
2018-07-16T06:17:41.887Z,1009.15
2018-07-16T06:18:41.899Z,1009.12
2018-07-16T06:19:41.892Z,1009.13
2018-07-16T06:20:41.895Z,1009.14
2018-07-16T06:21:42.100Z,1009.14
2018-07-16T06:22:42.102Z,1009.13
2018-07-16T06:23:41.903Z,1009.15
2018-07-16T06:24:41.908Z,1009.16
2018-07-16T06:25:41.925Z,1009.13
2018-07-16T06:26:41.928Z,1009.14
2018-07-16T06:27:41.920Z,1009.10
2018-07-16T06:28:41.930Z,1009.10
2018-07-16T06:29:41.936Z,1009.13
2018-07-16T06:30:41.956Z,1009.11
2018-07-16T06:31:41.942Z,1009.10
2018-07-16T06:32:41.936Z,1009.13
2018-07-16T06:33:42.152Z,1009.10
2018-07-16T06:34:42.143Z,1009.07
2018-07-16T06:35:41.948Z,1009.08
2018-07-16T06:36:42.151Z,1009.09
2018-07-16T06:37:41.954Z,1009.10
2018-07-16T06:38:41.969Z,1009.11
2018-07-16T06:39:42.043Z,1009.16
2018-07-16T06:40:42.109Z,1009.16
2018-07-16T06:41:41.966Z,1009.14
2018-07-16T06:42:41.983Z,1009.15
2018-07-16T06:43:41.986Z,1009.21
2018-07-16T06:44:41.977Z,1009.24
2018-07-16T06:45:41.991Z,1009.24
2018-07-16T06:46:42.000Z,1009.22
2018-07-16T06:47:42.008Z,1009.24
2018-07-16T06:48:41.995Z,1009.23
2018-07-16T06:49:42.001Z,1009.26
2018-07-16T06:50:42.012Z,1009.21
2018-07-16T06:51:42.007Z,1009.22
2018-07-16T06:52:42.006Z,1009.18
2018-07-16T06:53:42.022Z,1009.18
2018-07-16T06:54:42.019Z,1009.21
2018-07-16T06:55:42.032Z,1009.19
2018-07-16T06:56:42.238Z,1009.20
2018-07-16T06:57:42.240Z,1009.20
2018-07-16T06:58:42.235Z,1009.17
2018-07-16T06:59:42.037Z,1009.18
2018-07-16T07:00:42.043Z,1009.21
2018-07-16T07:01:42.064Z,1009.22
2018-07-16T07:02:42.058Z,1009.23
2018-07-16T07:03:42.057Z,1009.23
2018-07-16T07:04:42.083Z,1009.23
2018-07-16T07:05:42.059Z,1009.22
2018-07-16T07:06:42.077Z,1009.24
2018-07-16T07:07:42.069Z,1009.23
2018-07-16T07:08:42.080Z,1009.21
2018-07-16T07:09:42.283Z,1009.24
2018-07-16T07:10:42.096Z,1009.23
2018-07-16T07:11:42.090Z,1009.22
2018-07-16T07:12:42.101Z,1009.23
2018-07-16T07:13:42.105Z,1009.28
2018-07-16T07:14:42.111Z,1009.32
2018-07-16T07:15:42.111Z,1009.28
2018-07-16T07:16:42.104Z,1009.24
2018-07-16T07:17:42.119Z,1009.22
2018-07-16T07:18:42.159Z,1009.22
2018-07-16T07:19:42.130Z,1009.19
2018-07-16T07:20:42.137Z,1009.20
2018-07-16T07:21:42.148Z,1009.20
2018-07-16T07:22:42.142Z,1009.21
2018-07-16T07:23:42.134Z,1009.21
2018-07-16T07:24:42.139Z,1009.21
2018-07-16T07:25:42.145Z,1009.20
2018-07-16T07:26:42.160Z,1009.17
2018-07-16T07:27:42.368Z,1009.19
2018-07-16T07:28:42.360Z,1009.18
2018-07-16T07:29:42.184Z,1009.21
2018-07-16T07:30:42.165Z,1009.18
2018-07-16T07:31:42.180Z,1009.18
2018-07-16T07:32:42.177Z,1009.16
2018-07-16T07:33:42.203Z,1009.11
2018-07-16T07:34:42.184Z,1009.10
2018-07-16T07:35:42.345Z,1009.07
2018-07-16T07:36:42.207Z,1009.04
2018-07-16T07:37:42.209Z,1009.05
2018-07-16T07:38:42.202Z,1009.05
2018-07-16T07:39:42.238Z,1009.02
2018-07-16T07:40:42.417Z,1009.04
2018-07-16T07:41:42.219Z,1009.08
2018-07-16T07:42:42.424Z,1009.09
2018-07-16T07:43:42.255Z,1009.08
2018-07-16T07:44:42.241Z,1009.08
2018-07-16T07:45:42.249Z,1009.05
2018-07-16T07:46:42.242Z,1009.05
2018-07-16T07:47:42.273Z,1009.03
2018-07-16T07:48:42.457Z,1009.04
2018-07-16T07:49:42.471Z,1009.00
2018-07-16T07:50:42.259Z,1009.04
2018-07-16T07:51:42.274Z,1009.06
2018-07-16T07:52:42.474Z,1009.01
2018-07-16T07:53:42.277Z,1009.02
2018-07-16T07:54:42.601Z,1009.01
2018-07-16T07:55:42.353Z,1009.01
2018-07-16T07:56:42.506Z,1008.98
2018-07-16T07:57:42.305Z,1009.02
2018-07-16T07:58:42.305Z,1009.00
2018-07-16T07:59:42.318Z,1009.02
2018-07-16T08:00:42.526Z,1009.03
2018-07-16T08:01:42.325Z,1009.04
2018-07-16T08:02:42.321Z,1009.03
2018-07-16T08:03:42.325Z,1009.03
2018-07-16T08:04:42.332Z,1009.01
2018-07-16T08:05:42.348Z,1009.04
2018-07-16T08:06:42.359Z,1009.04
2018-07-16T08:07:42.348Z,1009.02
2018-07-16T08:08:42.571Z,1009.04
2018-07-16T08:09:42.360Z,1009.02
2018-07-16T08:10:42.367Z,1009.02
2018-07-16T08:11:42.376Z,1009.03
2018-07-16T08:12:42.389Z,1009.01
2018-07-16T08:13:42.651Z,1009.04
2018-07-16T08:14:42.417Z,1009.01
2018-07-16T08:15:42.425Z,1008.98
2018-07-16T08:16:42.399Z,1008.99
2018-07-16T08:17:42.414Z,1008.99
2018-07-16T08:18:42.424Z,1008.97
2018-07-16T08:19:42.418Z,1008.98
2018-07-16T08:20:42.451Z,1008.97
2018-07-16T08:21:42.453Z,1008.99
2018-07-16T08:22:42.639Z,1009.00
2018-07-16T08:23:42.455Z,1009.00
2018-07-16T08:24:42.463Z,1009.00
2018-07-16T08:25:42.472Z,1008.97
2018-07-16T08:26:42.477Z,1008.96
2018-07-16T08:27:42.474Z,1008.95
2018-07-16T08:28:42.497Z,1008.92
2018-07-16T08:29:42.481Z,1008.92
2018-07-16T08:30:42.487Z,1008.93
2018-07-16T08:31:42.515Z,1008.92
2018-07-16T08:32:42.495Z,1008.94
2018-07-16T08:33:42.526Z,1008.92
2018-07-16T08:34:42.507Z,1008.90
2018-07-16T08:35:42.516Z,1008.88
2018-07-16T08:36:42.536Z,1008.91
2018-07-16T08:37:42.528Z,1008.93
2018-07-16T08:38:42.532Z,1008.92
2018-07-16T08:39:42.545Z,1008.93
2018-07-16T08:40:42.544Z,1008.94
2018-07-16T08:41:42.558Z,1008.98
2018-07-16T08:42:42.559Z,1008.94
2018-07-16T08:43:42.563Z,1008.91
2018-07-16T08:44:42.582Z,1008.93
2018-07-16T08:45:42.576Z,1008.93
2018-07-16T08:46:42.581Z,1008.94
2018-07-16T08:47:42.584Z,1008.89
2018-07-16T08:48:42.810Z,1008.91
2018-07-16T08:49:42.602Z,1008.89
2018-07-16T08:50:42.610Z,1008.87
2018-07-16T08:51:42.629Z,1008.86
2018-07-16T08:52:42.659Z,1008.88
2018-07-16T08:53:42.622Z,1008.87
2018-07-16T08:54:42.626Z,1008.85
2018-07-16T08:55:42.833Z,1008.89
2018-07-16T08:56:42.638Z,1008.88
2018-07-16T08:57:42.859Z,1008.86
2018-07-16T08:58:42.658Z,1008.83
2018-07-16T08:59:42.652Z,1008.79
2018-07-16T09:00:42.861Z,1008.81
2018-07-16T09:01:42.665Z,1008.81
2018-07-16T09:02:42.671Z,1008.79
2018-07-16T09:03:42.891Z,1008.79
2018-07-16T09:04:42.682Z,1008.78
2018-07-16T09:05:42.890Z,1008.79
2018-07-16T09:06:42.896Z,1008.80
2018-07-16T09:07:42.701Z,1008.78
2018-07-16T09:08:42.925Z,1008.80
2018-07-16T09:09:42.721Z,1008.76
2018-07-16T09:10:42.725Z,1008.78
2018-07-16T09:11:42.725Z,1008.79
2018-07-16T09:12:42.734Z,1008.77
2018-07-16T09:13:42.733Z,1008.76
2018-07-16T09:14:42.741Z,1008.77
2018-07-16T09:15:42.743Z,1008.78
2018-07-16T09:16:43.019Z,1008.80
2018-07-16T09:17:42.756Z,1008.76
2018-07-16T09:18:42.776Z,1008.76
2018-07-16T09:19:42.797Z,1008.78
2018-07-16T09:20:42.791Z,1008.79
2018-07-16T09:21:42.789Z,1008.81
2018-07-16T09:22:42.802Z,1008.85
2018-07-16T09:23:42.793Z,1008.85
2018-07-16T09:24:42.799Z,1008.83
2018-07-16T09:25:42.804Z,1008.84
2018-07-16T09:26:42.820Z,1008.81
2018-07-16T09:27:42.814Z,1008.81
2018-07-16T09:28:42.835Z,1008.86
2018-07-16T09:29:43.031Z,1008.83
2018-07-16T09:30:42.842Z,1008.84
2018-07-16T09:31:42.834Z,1008.85
2018-07-16T09:32:42.882Z,1008.82
2018-07-16T09:33:42.860Z,1008.82
2018-07-16T09:34:43.059Z,1008.81
2018-07-16T09:35:42.870Z,1008.85
2018-07-16T09:36:42.864Z,1008.83
2018-07-16T09:37:42.869Z,1008.81
2018-07-16T09:38:42.881Z,1008.80
2018-07-16T09:39:42.896Z,1008.80
2018-07-16T09:40:42.885Z,1008.84
2018-07-16T09:41:43.128Z,1008.77
2018-07-16T09:42:42.931Z,1008.84
2018-07-16T09:43:42.914Z,1008.80
2018-07-16T09:44:42.918Z,1008.79
2018-07-16T09:45:42.927Z,1008.76
2018-07-16T09:46:43.137Z,1008.75
2018-07-16T09:47:42.941Z,1008.72
2018-07-16T09:48:43.151Z,1008.70
2018-07-16T09:49:42.943Z,1008.69
2018-07-16T09:50:42.945Z,1008.65
2018-07-16T09:51:42.960Z,1008.69
2018-07-16T09:52:42.969Z,1008.68
2018-07-16T09:53:42.960Z,1008.67
2018-07-16T09:54:42.965Z,1008.67
2018-07-16T09:55:43.031Z,1008.70
2018-07-16T09:56:42.995Z,1008.66
2018-07-16T09:57:43.046Z,1008.69
2018-07-16T09:58:43.007Z,1008.69
2018-07-16T09:59:43.007Z,1008.67
2018-07-16T10:00:43.004Z,1008.67
2018-07-16T10:01:43.010Z,1008.60
2018-07-16T10:02:43.014Z,1008.61
2018-07-16T10:03:43.025Z,1008.57
2018-07-16T10:04:43.030Z,1008.58
2018-07-16T10:05:43.047Z,1008.59
2018-07-16T10:06:43.049Z,1008.61
2018-07-16T10:07:43.052Z,1008.58
2018-07-16T10:08:43.050Z,1008.53
2018-07-16T10:09:43.064Z,1008.54
2018-07-16T10:10:43.061Z,1008.56
2018-07-16T10:11:43.068Z,1008.50
2018-07-16T10:12:43.079Z,1008.52
2018-07-16T10:13:43.079Z,1008.54
2018-07-16T10:14:43.085Z,1008.52
2018-07-16T10:15:43.089Z,1008.54
2018-07-16T10:16:43.105Z,1008.50
2018-07-16T10:17:43.106Z,1008.49
2018-07-16T10:18:43.111Z,1008.47
2018-07-16T10:19:43.116Z,1008.46
2018-07-16T10:20:43.134Z,1008.45
2018-07-16T10:21:43.141Z,1008.44
2018-07-16T10:22:43.148Z,1008.45
2018-07-16T10:23:43.136Z,1008.43
2018-07-16T10:24:43.146Z,1008.45
2018-07-16T10:25:43.168Z,1008.46
2018-07-16T10:26:43.154Z,1008.44
2018-07-16T10:27:43.366Z,1008.45
2018-07-16T10:28:43.179Z,1008.41
2018-07-16T10:29:43.388Z,1008.42
2018-07-16T10:30:43.184Z,1008.45
2018-07-16T10:31:43.244Z,1008.44
2018-07-16T10:32:43.206Z,1008.44
2018-07-16T10:33:43.285Z,1008.40
2018-07-16T10:34:43.203Z,1008.42
2018-07-16T10:35:43.211Z,1008.40
2018-07-16T10:36:43.222Z,1008.41
2018-07-16T10:37:43.224Z,1008.39
2018-07-16T10:38:43.254Z,1008.38
2018-07-16T10:39:43.256Z,1008.36
2018-07-16T10:40:43.252Z,1008.36
2018-07-16T10:41:43.250Z,1008.36
2018-07-16T10:42:43.266Z,1008.35
2018-07-16T10:43:43.264Z,1008.35
2018-07-16T10:44:43.281Z,1008.31
2018-07-16T10:45:43.288Z,1008.31
2018-07-16T10:46:43.312Z,1008.33
2018-07-16T10:47:43.289Z,1008.29
2018-07-16T10:48:43.304Z,1008.27
2018-07-16T10:49:43.372Z,1008.25
2018-07-16T10:50:43.321Z,1008.27
2018-07-16T10:51:43.321Z,1008.28
2018-07-16T10:52:43.336Z,1008.27
2018-07-16T10:53:43.334Z,1008.26
2018-07-16T10:54:43.339Z,1008.27
2018-07-16T10:55:43.345Z,1008.27
2018-07-16T10:56:43.357Z,1008.25
2018-07-16T10:57:43.366Z,1008.20
2018-07-16T10:58:43.353Z,1008.23
2018-07-16T10:59:43.377Z,1008.23
2018-07-16T11:00:43.381Z,1008.22
2018-07-16T11:01:43.375Z,1008.23
2018-07-16T11:02:43.381Z,1008.23
2018-07-16T11:03:43.399Z,1008.20
2018-07-16T11:04:43.391Z,1008.22
2018-07-16T11:05:43.403Z,1008.22
2018-07-16T11:06:43.432Z,1008.21
2018-07-16T11:07:43.435Z,1008.21
2018-07-16T11:08:43.428Z,1008.19
2018-07-16T11:09:43.432Z,1008.13
2018-07-16T11:10:43.443Z,1008.14
2018-07-16T11:11:43.440Z,1008.13
2018-07-16T11:12:43.464Z,1008.14
2018-07-16T11:13:43.468Z,1008.11
2018-07-16T11:14:43.462Z,1008.14
2018-07-16T11:15:43.465Z,1008.17
2018-07-16T11:16:43.480Z,1008.15
2018-07-16T11:17:43.491Z,1008.11
2018-07-16T11:18:43.497Z,1008.06
2018-07-16T11:19:43.490Z,1008.09
2018-07-16T11:20:43.559Z,1008.11
2018-07-16T11:21:43.515Z,1008.13
2018-07-16T11:22:43.508Z,1008.12
2018-07-16T11:23:43.515Z,1008.14
2018-07-16T11:24:43.527Z,1008.14
2018-07-16T11:25:43.533Z,1008.12
2018-07-16T11:26:43.534Z,1008.14
2018-07-16T11:27:43.559Z,1008.15
2018-07-16T11:28:43.552Z,1008.12
2018-07-16T11:29:43.554Z,1008.14
2018-07-16T11:30:43.560Z,1008.15
2018-07-16T11:31:43.576Z,1008.19
2018-07-16T11:32:43.569Z,1008.19
2018-07-16T11:33:43.600Z,1008.17
2018-07-16T11:34:43.584Z,1008.13
2018-07-16T11:35:43.604Z,1008.12
2018-07-16T11:36:43.608Z,1008.12
2018-07-16T11:37:43.605Z,1008.08
2018-07-16T11:38:43.609Z,1008.08
2018-07-16T11:39:43.680Z,1008.11
2018-07-16T11:40:43.624Z,1008.08
2018-07-16T11:41:43.640Z,1008.10
2018-07-16T11:42:43.638Z,1008.03
2018-07-16T11:43:43.640Z,1008.08
2018-07-16T11:44:43.658Z,1008.08
2018-07-16T11:45:43.662Z,1008.04
2018-07-16T11:46:43.664Z,1008.04
2018-07-16T11:47:43.680Z,1008.06
2018-07-16T11:48:43.694Z,1008.04
2018-07-16T11:49:43.687Z,1008.03
2018-07-16T11:50:43.701Z,1008.02
2018-07-16T11:51:43.711Z,1008.01
2018-07-16T11:52:43.700Z,1007.95
2018-07-16T11:53:43.709Z,1008.00
2018-07-16T11:54:43.725Z,1007.99
2018-07-16T11:55:43.723Z,1007.98
2018-07-16T11:56:43.740Z,1007.98
2018-07-16T11:57:43.733Z,1007.98
2018-07-16T11:58:43.755Z,1007.97
2018-07-16T11:59:43.765Z,1007.93
2018-07-16T12:00:43.768Z,1007.93
2018-07-16T12:01:43.831Z,1007.93
2018-07-16T12:02:43.772Z,1007.91
2018-07-16T12:03:43.775Z,1007.90
2018-07-16T12:04:43.780Z,1007.84
2018-07-16T12:05:43.793Z,1007.92